createdAt,value
2022-09-21T00:01:12.762Z,69.65
2022-09-21T00:03:44.008Z,69.63
2022-09-21T00:06:19.281Z,69.72
2022-09-21T00:08:49.954Z,69.63
2022-09-21T00:11:25.233Z,69.65
2022-09-21T00:14:01.713Z,69.52
2022-09-21T00:16:35.217Z,69.69
2022-09-21T00:19:07.088Z,69.85
2022-09-21T00:21:38.611Z,69.86
2022-09-21T00:24:13.039Z,69.77
2022-09-21T00:26:43.345Z,69.86
2022-09-21T00:29:14.466Z,69.90
2022-09-21T00:31:44.794Z,69.83
2022-09-21T00:34:15.029Z,69.72
2022-09-21T00:36:45.563Z,69.76
2022-09-21T00:39:15.802Z,69.85
2022-09-21T00:41:46.086Z,69.77
2022-09-21T00:44:28.624Z,70.03
2022-09-21T00:47:03.864Z,69.89
2022-09-21T00:49:36.180Z,69.94
2022-09-21T00:52:08.819Z,69.98
2022-09-21T00:54:57.899Z,70.11
2022-09-21T00:57:32.607Z,69.96
2022-09-21T01:00:08.744Z,69.92
2022-09-21T01:02:40.429Z,70.19
2022-09-21T01:05:12.250Z,70.04
2022-09-21T01:07:47.930Z,70.19
2022-09-21T01:10:20.275Z,70.45
2022-09-21T01:13:02.518Z,70.41
2022-09-21T01:15:32.652Z,70.48
2022-09-21T01:18:28.813Z,70.38
2022-09-21T01:21:08.203Z,70.20
2022-09-21T01:23:48.153Z,70.40
2022-09-21T01:26:23.943Z,70.43
2022-09-21T01:29:13.373Z,70.51
2022-09-21T01:32:00.666Z,70.58
2022-09-21T01:34:39.566Z,70.74
2022-09-21T01:37:15.780Z,70.62
2022-09-21T01:39:49.680Z,70.77
2022-09-21T01:42:23.306Z,70.89
2022-09-21T01:44:53.943Z,70.99
2022-09-21T01:47:25.736Z,70.93
2022-09-21T01:49:59.209Z,70.83
2022-09-21T01:52:47.673Z,70.89
2022-09-21T01:55:28.603Z,71.01
2022-09-21T01:58:03.284Z,70.97
2022-09-21T02:00:36.655Z,70.80
2022-09-21T02:03:41.183Z,70.98
2022-09-21T02:06:13.187Z,71.21
2022-09-21T02:08:43.533Z,71.35
2022-09-21T02:11:14.427Z,71.10
2022-09-21T02:13:50.099Z,71.19
2022-09-21T02:16:37.001Z,71.17
2022-09-21T02:19:13.263Z,71.04
2022-09-21T02:22:06.279Z,71.06
2022-09-21T02:24:47.708Z,71.18
2022-09-21T02:27:48.501Z,71.33
2022-09-21T02:30:25.184Z,71.30
2022-09-21T02:33:28.419Z,71.46
2022-09-21T02:36:09.317Z,71.40
2022-09-21T02:38:39.503Z,71.38
2022-09-21T02:41:09.605Z,71.30
2022-09-21T02:43:55.066Z,71.33
2022-09-21T02:46:34.738Z,71.34
2022-09-21T02:49:09.785Z,71.45
2022-09-21T02:51:47.885Z,71.45
2022-09-21T02:54:22.260Z,71.28
2022-09-21T02:56:54.449Z,71.22
2022-09-21T02:59:25.302Z,71.12
2022-09-21T03:01:56.693Z,71.40
2022-09-21T03:04:28.203Z,71.31
2022-09-21T03:06:58.484Z,71.29
2022-09-21T03:09:29.601Z,71.23
2022-09-21T03:12:00.015Z,71.33
2022-09-21T03:14:30.274Z,71.38
2022-09-21T03:17:01.350Z,71.34
2022-09-21T03:19:31.405Z,71.31
2022-09-21T03:22:01.445Z,71.44
2022-09-21T03:24:49.031Z,71.38
2022-09-21T03:27:22.971Z,71.55
2022-09-21T03:29:53.177Z,71.61
2022-09-21T03:32:23.496Z,71.57
2022-09-21T03:34:53.873Z,71.53
2022-09-21T03:37:25.311Z,71.62
2022-09-21T03:39:55.494Z,71.68
2022-09-21T03:42:25.749Z,71.82
2022-09-21T03:44:56.363Z,71.94
2022-09-21T03:47:26.921Z,71.95
2022-09-21T03:49:57.220Z,71.81
2022-09-21T03:52:27.613Z,71.94
2022-09-21T03:54:58.121Z,71.83
2022-09-21T03:57:28.478Z,71.99
2022-09-21T03:59:58.877Z,72.08
2022-09-21T04:02:29.191Z,71.91
2022-09-21T04:04:59.722Z,71.97
2022-09-21T04:07:34.858Z,72.13
2022-09-21T04:10:07.644Z,71.88
2022-09-21T04:12:38.186Z,71.77
2022-09-21T04:15:12.203Z,71.74
2022-09-21T04:17:42.923Z,72.00
2022-09-21T04:20:13.869Z,72.06
2022-09-21T04:22:45.170Z,72.07
2022-09-21T04:25:16.810Z,72.10
2022-09-21T04:27:47.101Z,71.98
2022-09-21T04:30:18.563Z,71.99
2022-09-21T04:32:48.891Z,72.07
2022-09-21T04:35:19.645Z,72.20
2022-09-21T04:37:57.621Z,72.18
2022-09-21T04:40:28.548Z,72.27
2022-09-21T04:42:59.088Z,72.27
2022-09-21T04:45:29.424Z,72.07
2022-09-21T04:47:59.678Z,72.02
2022-09-21T04:50:29.965Z,72.25
2022-09-21T04:53:07.280Z,72.24
2022-09-21T04:55:37.699Z,72.24
2022-09-21T04:58:08.103Z,72.24
2022-09-21T05:00:38.481Z,72.22
2022-09-21T05:03:12.038Z,72.13
2022-09-21T05:05:54.225Z,72.25
2022-09-21T05:08:40.513Z,72.25
2022-09-21T05:11:13.393Z,72.31
2022-09-21T05:13:45.159Z,72.36
2022-09-21T05:16:17.262Z,72.39
2022-09-21T05:18:48.410Z,72.31
2022-09-21T05:21:18.809Z,72.38
2022-09-21T05:23:52.740Z,72.37
2022-09-21T05:31:17.990Z,72.67
2022-09-21T05:34:05.491Z,72.66
2022-09-21T05:36:53.595Z,72.73
2022-09-21T05:39:24.189Z,72.77
2022-09-21T05:41:57.170Z,72.75
2022-09-21T05:44:29.974Z,72.97
2022-09-21T05:47:09.994Z,72.98
2022-09-21T05:50:00.031Z,73.21
2022-09-21T05:52:45.323Z,73.20
2022-09-21T05:55:33.861Z,73.31
2022-09-21T05:58:30.273Z,73.23
2022-09-21T06:01:30.564Z,73.14
2022-09-21T06:04:05.349Z,73.19
2022-09-21T06:06:37.132Z,73.31
2022-09-21T06:09:07.399Z,73.33
2022-09-21T06:11:38.094Z,73.26
2022-09-21T06:14:08.365Z,73.20
2022-09-21T06:16:42.901Z,73.11
2022-09-21T06:19:14.709Z,73.23
2022-09-21T06:26:15.290Z,73.52
2022-09-21T06:28:45.554Z,73.43
2022-09-21T06:31:15.796Z,73.39
2022-09-21T06:33:48.226Z,73.24
2022-09-21T06:36:19.064Z,73.25
2022-09-21T06:38:49.086Z,73.26
2022-09-21T06:41:21.444Z,73.35
2022-09-21T06:44:58.448Z,73.38
2022-09-21T06:47:28.815Z,73.40
2022-09-21T06:49:58.931Z,73.25
2022-09-21T06:52:29.216Z,73.03
2022-09-21T06:54:59.734Z,73.25
2022-09-21T06:57:30.098Z,73.23
2022-09-21T07:00:00.303Z,73.24
2022-09-21T07:02:30.730Z,73.24
2022-09-21T07:05:00.883Z,73.37
2022-09-21T07:07:31.991Z,73.31
2022-09-21T07:10:12.158Z,73.36
2022-09-21T07:12:45.361Z,73.44
2022-09-21T07:21:24.626Z,73.46
2022-09-21T07:29:02.301Z,73.43
2022-09-21T07:31:32.982Z,73.59
2022-09-21T07:34:03.323Z,73.55
2022-09-21T07:36:33.383Z,73.49
2022-09-21T07:39:06.119Z,73.37
2022-09-21T07:41:36.214Z,73.59
2022-09-21T07:44:07.214Z,73.70
2022-09-21T07:46:41.307Z,73.49
2022-09-21T07:49:16.048Z,73.52
2022-09-21T07:51:46.892Z,73.67
2022-09-21T07:54:17.075Z,73.51
2022-09-21T07:57:07.399Z,73.45
2022-09-21T07:59:38.008Z,73.65
2022-09-21T08:02:09.039Z,73.79
2022-09-21T08:04:39.904Z,73.85
2022-09-21T08:07:10.182Z,74.01
2022-09-21T08:09:41.281Z,73.96
2022-09-21T08:12:12.639Z,73.89
2022-09-21T08:14:43.866Z,73.70
2022-09-21T08:17:13.951Z,73.47
2022-09-21T08:19:44.715Z,73.34
2022-09-21T08:22:15.502Z,73.43
2022-09-21T08:24:46.514Z,73.31
2022-09-21T08:27:20.198Z,73.33
2022-09-21T08:29:50.722Z,73.51
2022-09-21T08:32:46.530Z,73.42
2022-09-21T08:35:11.833Z,73.46
2022-09-21T08:37:42.164Z,73.73
2022-09-21T08:44:52.475Z,72.92
2022-09-21T08:47:41.501Z,73.22
2022-09-21T08:50:39.321Z,73.31
2022-09-21T08:53:37.221Z,72.74
2022-09-21T08:56:07.921Z,72.74
2022-09-21T08:58:41.882Z,73.05
2022-09-21T09:01:34.707Z,72.89
2022-09-21T09:04:51.215Z,72.83
2022-09-21T09:07:33.820Z,72.82
2022-09-21T09:10:16.470Z,72.88
2022-09-21T09:13:24.909Z,72.94
2022-09-21T09:16:07.076Z,72.88
2022-09-21T09:19:24.180Z,73.32
2022-09-21T09:23:04.063Z,73.13
2022-09-21T09:25:44.723Z,72.46
2022-09-21T09:28:53.009Z,72.28
2022-09-21T09:31:39.712Z,72.48
2022-09-21T09:34:14.938Z,72.35
2022-09-21T09:36:59.990Z,72.09
2022-09-21T09:39:32.481Z,72.31
2022-09-21T09:42:40.409Z,72.25
2022-09-21T09:45:45.547Z,72.22
2022-09-21T09:48:18.849Z,72.31
2022-09-21T09:50:49.812Z,72.14
2022-09-21T09:53:30.755Z,72.12
2022-09-21T09:56:02.831Z,72.25
2022-09-21T09:58:54.389Z,72.03
2022-09-21T10:01:44.841Z,71.77
2022-09-21T10:04:18.454Z,71.98
2022-09-21T10:06:49.163Z,72.04
2022-09-21T10:09:25.951Z,71.79
2022-09-21T10:12:19.019Z,71.69
2022-09-21T10:14:55.073Z,71.50
2022-09-21T10:17:27.101Z,71.52
2022-09-21T10:20:05.643Z,71.50
2022-09-21T10:22:36.641Z,71.53
2022-09-21T10:25:08.948Z,71.25
2022-09-21T10:27:44.587Z,71.20
2022-09-21T10:30:47.136Z,71.15
2022-09-21T10:33:24.051Z,71.44
2022-09-21T10:35:55.013Z,71.55
2022-09-21T10:38:30.108Z,71.63
2022-09-21T10:41:00.379Z,71.75
2022-09-21T10:43:44.954Z,71.82
2022-09-21T10:46:16.184Z,72.01
2022-09-21T10:48:49.424Z,71.92
2022-09-21T10:51:30.831Z,71.99
2022-09-21T10:54:00.932Z,71.81
2022-09-21T10:56:31.042Z,71.67
2022-09-21T10:59:23.789Z,71.49
2022-09-21T11:01:57.451Z,70.97
2022-09-21T11:04:44.725Z,71.20
2022-09-21T11:07:32.739Z,71.23
2022-09-21T11:10:26.895Z,71.50
2022-09-21T11:13:11.713Z,71.33
2022-09-21T11:16:06.763Z,71.45
2022-09-21T11:18:51.699Z,71.47
2022-09-21T11:21:38.187Z,71.53
2022-09-21T11:24:43.278Z,71.38
2022-09-21T11:27:38.629Z,71.48
2022-09-21T11:30:15.548Z,71.74
2022-09-21T11:33:19.233Z,71.58
2022-09-21T11:36:25.720Z,71.66
2022-09-21T11:39:01.048Z,71.19
2022-09-21T11:41:59.419Z,71.44
2022-09-21T11:45:02.387Z,71.07
2022-09-21T11:47:56.424Z,70.50
2022-09-21T11:50:34.995Z,70.95
2022-09-21T11:53:12.800Z,70.66
2022-09-21T11:56:18.754Z,70.98
2022-09-21T11:59:29.622Z,70.87
2022-09-21T12:02:26.075Z,70.56
2022-09-21T12:05:20.098Z,70.57
2022-09-21T12:08:15.217Z,70.40
2022-09-21T12:10:51.443Z,70.37
2022-09-21T12:13:30.602Z,70.18
2022-09-21T12:16:24.126Z,70.24
2022-09-21T12:19:04.824Z,70.37
2022-09-21T12:21:47.748Z,70.05
2022-09-21T12:24:32.046Z,69.93
2022-09-21T12:27:36.615Z,70.06
2022-09-21T12:30:17.468Z,69.78
2022-09-21T12:32:53.605Z,69.50
2022-09-21T12:35:37.023Z,69.73
2022-09-21T12:41:25.578Z,69.71
2022-09-21T12:44:00.878Z,69.56
2022-09-21T12:46:37.641Z,69.61
2022-09-21T12:49:16.354Z,69.05
2022-09-21T12:51:55.191Z,68.96
2022-09-21T12:54:50.409Z,69.25
2022-09-21T12:58:19.431Z,68.96
2022-09-21T13:01:15.217Z,69.34
2022-09-21T13:04:29.791Z,69.26
2022-09-21T13:07:02.664Z,69.24
2022-09-21T13:09:39.627Z,69.41
2022-09-21T13:12:35.049Z,69.58
2022-09-21T13:15:22.327Z,69.45
2022-09-21T13:18:08.524Z,69.63
2022-09-21T13:20:44.042Z,69.51
2022-09-21T13:23:20.063Z,69.50
2022-09-21T13:26:03.525Z,69.38
2022-09-21T13:28:51.710Z,69.05
2022-09-21T13:31:54.752Z,68.65
2022-09-21T13:35:29.388Z,69.07
2022-09-21T13:38:34.650Z,69.06
2022-09-21T13:41:10.020Z,69.46
2022-09-21T13:43:51.501Z,69.66
2022-09-21T13:46:36.718Z,69.67
2022-09-21T13:49:07.053Z,69.46
2022-09-21T13:51:51.409Z,69.62
2022-09-21T13:54:25.763Z,69.73
2022-09-21T13:57:37.201Z,69.70
2022-09-21T14:00:14.315Z,69.48
2022-09-21T14:02:58.651Z,69.96
2022-09-21T14:05:55.739Z,70.21
2022-09-21T14:08:34.838Z,70.41
2022-09-21T14:11:10.123Z,70.28
2022-09-21T14:13:44.388Z,70.44
2022-09-21T14:16:34.730Z,70.55
2022-09-21T14:19:27.249Z,70.22
2022-09-21T14:22:06.629Z,70.26
2022-09-21T14:24:44.449Z,69.99
2022-09-21T14:27:45.313Z,70.01
2022-09-21T14:30:25.251Z,70.11
2022-09-21T14:33:14.608Z,69.92
2022-09-21T14:35:47.786Z,69.89
2022-09-21T14:38:26.420Z,69.88
2022-09-21T14:41:03.387Z,69.87
2022-09-21T14:43:35.795Z,70.03
2022-09-21T14:46:20.361Z,70.22
2022-09-21T14:49:19.120Z,70.23
2022-09-21T14:52:12.315Z,70.33
2022-09-21T14:55:17.527Z,70.20
2022-09-21T14:58:01.250Z,70.10
2022-09-21T15:00:50.646Z,69.84
2022-09-21T15:03:32.234Z,70.11
2022-09-21T15:10:55.326Z,69.77
2022-09-21T15:13:45.254Z,69.63
2022-09-21T15:16:40.453Z,69.89
2022-09-21T15:19:37.793Z,70.08
2022-09-21T15:22:21.783Z,70.00
2022-09-21T15:25:00.554Z,70.11
2022-09-21T15:27:33.800Z,70.24
2022-09-21T15:30:08.641Z,70.40
2022-09-21T15:32:38.752Z,70.27
2022-09-21T15:35:27.845Z,70.26
2022-09-21T15:38:02.626Z,70.10
2022-09-21T15:40:37.866Z,70.45
2022-09-21T15:43:21.013Z,70.45
2022-09-21T15:45:56.140Z,70.17
2022-09-21T15:48:34.241Z,70.43
2022-09-21T15:51:14.886Z,70.35
2022-09-21T15:53:56.270Z,70.79
2022-09-21T15:56:30.661Z,70.57
2022-09-21T15:59:08.273Z,70.63
2022-09-21T16:01:47.913Z,70.92
2022-09-21T16:04:23.353Z,71.00
2022-09-21T16:07:26.550Z,71.04
2022-09-21T16:09:56.951Z,70.85
2022-09-21T16:12:36.409Z,70.95
2022-09-21T16:15:19.911Z,70.74
2022-09-21T16:18:05.558Z,70.80
2022-09-21T16:20:49.031Z,70.96
2022-09-21T16:23:23.640Z,71.23
2022-09-21T16:26:00.983Z,70.90
2022-09-21T16:28:42.763Z,71.11
2022-09-21T16:31:37.714Z,70.84
2022-09-21T16:34:19.258Z,71.06
2022-09-21T16:36:51.983Z,71.00
2022-09-21T16:39:24.141Z,70.94
2022-09-21T16:42:00.336Z,70.91
2022-09-21T16:44:51.300Z,71.01
2022-09-21T16:47:28.614Z,70.92
2022-09-21T16:51:04.121Z,71.06
2022-09-21T16:53:36.653Z,71.01
2022-09-21T16:56:07.663Z,70.78
2022-09-21T16:58:38.356Z,70.75
2022-09-21T17:01:22.208Z,70.82
2022-09-21T17:03:53.272Z,70.86
2022-09-21T17:06:24.217Z,71.03
2022-09-21T17:08:55.638Z,70.83
2022-09-21T17:11:26.359Z,71.02
2022-09-21T17:14:01.753Z,70.98
2022-09-21T17:16:32.497Z,70.89
2022-09-21T17:19:03.927Z,71.08
2022-09-21T17:21:34.219Z,70.86
2022-09-21T17:24:04.223Z,70.66
2022-09-21T17:26:35.041Z,70.88
2022-09-21T17:29:22.753Z,71.05
2022-09-21T17:31:56.810Z,71.07
2022-09-21T17:34:35.412Z,70.81
2022-09-21T17:37:07.814Z,70.82
2022-09-21T17:39:38.931Z,70.79
2022-09-21T17:42:15.428Z,70.88
2022-09-21T17:45:13.309Z,70.80
2022-09-21T17:47:46.949Z,70.51
2022-09-21T17:50:29.597Z,70.67
2022-09-21T17:53:17.695Z,70.84
2022-09-21T17:55:54.757Z,70.83
2022-09-21T17:58:49.529Z,70.95
2022-09-21T18:01:33.629Z,70.61
2022-09-21T18:04:05.723Z,70.81
2022-09-21T18:06:37.130Z,70.59
2022-09-21T18:09:08.184Z,70.91
2022-09-21T18:12:24.896Z,70.84
2022-09-21T18:15:09.061Z,70.53
2022-09-21T18:18:05.097Z,70.78
2022-09-21T18:21:02.469Z,70.92
2022-09-21T18:24:31.028Z,70.69
2022-09-21T18:27:30.734Z,70.71
2022-09-21T18:30:06.079Z,70.55
2022-09-21T18:33:19.483Z,70.39
2022-09-21T18:36:26.386Z,70.45
2022-09-21T18:39:16.591Z,70.46
2022-09-21T18:41:56.264Z,70.56
2022-09-21T18:44:36.326Z,70.49
2022-09-21T18:47:29.841Z,70.39
2022-09-21T18:50:10.680Z,70.30
2022-09-21T18:52:52.310Z,70.54
2022-09-21T18:55:33.226Z,70.36
2022-09-21T18:58:03.993Z,70.41
2022-09-21T19:00:36.282Z,70.29
2022-09-21T19:03:18.162Z,70.36
2022-09-21T19:06:05.402Z,70.15
2022-09-21T19:09:12.794Z,70.23
2022-09-21T19:12:05.546Z,70.22
2022-09-21T19:14:59.547Z,70.16
2022-09-21T19:17:38.274Z,69.98
2022-09-21T19:20:50.271Z,70.11
2022-09-21T19:23:44.914Z,69.77
2022-09-21T19:26:30.264Z,70.00
2022-09-21T19:29:31.362Z,69.83
2022-09-21T19:32:04.100Z,69.87
2022-09-21T19:34:34.472Z,70.05
2022-09-21T19:37:07.922Z,69.88
2022-09-21T19:39:39.716Z,69.85
2022-09-21T19:42:35.295Z,69.83
2022-09-21T19:45:29.988Z,70.02
2022-09-21T19:48:07.068Z,70.02
2022-09-21T19:50:55.011Z,69.72
2022-09-21T19:53:43.681Z,69.52
2022-09-21T19:56:34.588Z,69.53
2022-09-21T19:59:22.304Z,69.69
2022-09-21T20:01:58.243Z,69.77
2022-09-21T20:04:34.432Z,69.48
2022-09-21T20:07:43.066Z,69.49
2022-09-21T20:10:25.501Z,69.68
2022-09-21T20:13:31.849Z,69.33
2022-09-21T20:16:33.490Z,69.72
2022-09-21T20:19:06.584Z,69.47
2022-09-21T20:21:42.893Z,69.59
2022-09-21T20:24:25.149Z,69.47
2022-09-21T20:26:55.653Z,69.49
2022-09-21T20:29:26.282Z,69.45
2022-09-21T20:31:57.264Z,69.27
2022-09-21T20:34:28.280Z,69.34
2022-09-21T20:36:58.870Z,69.49
2022-09-21T20:39:29.024Z,69.50
2022-09-21T20:42:00.116Z,69.48
2022-09-21T20:44:30.254Z,69.45
2022-09-21T20:47:00.087Z,69.39
2022-09-21T20:49:32.093Z,69.37
2022-09-21T20:52:02.449Z,69.51
2022-09-21T20:54:32.983Z,69.51
2022-09-21T20:57:03.313Z,69.36
2022-09-21T20:59:41.411Z,69.36
2022-09-21T21:02:13.734Z,69.39
2022-09-21T21:04:44.025Z,69.37
2022-09-21T21:07:14.246Z,69.17
2022-09-21T21:09:44.471Z,69.14
2022-09-21T21:12:16.367Z,69.36
2022-09-21T21:14:46.577Z,69.15
2022-09-21T21:17:17.080Z,69.25
2022-09-21T21:19:47.495Z,69.21
2022-09-21T21:22:17.760Z,69.17
2022-09-21T21:24:48.420Z,69.13
2022-09-21T21:27:24.163Z,69.15
2022-09-21T21:29:56.257Z,69.05
2022-09-21T21:32:28.220Z,68.92
2022-09-21T21:34:58.514Z,68.84
2022-09-21T21:37:29.616Z,68.92
2022-09-21T21:39:59.830Z,68.72
2022-09-21T21:42:33.686Z,68.75
2022-09-21T21:45:03.958Z,68.87
2022-09-21T21:47:41.599Z,68.94
2022-09-21T21:50:13.073Z,69.08
2022-09-21T21:52:45.447Z,69.04
2022-09-21T21:55:15.973Z,68.91
2022-09-21T21:57:46.275Z,68.71
2022-09-21T22:00:16.746Z,68.70
2022-09-21T22:02:47.245Z,68.78
2022-09-21T22:05:17.540Z,68.72
2022-09-21T22:07:47.740Z,68.77
2022-09-21T22:10:18.181Z,68.50
2022-09-21T22:12:48.806Z,68.75
2022-09-21T22:15:20.569Z,68.71
2022-09-21T22:17:51.220Z,68.78
2022-09-21T22:20:23.254Z,68.64
2022-09-21T22:22:53.253Z,68.55
2022-09-21T22:25:23.471Z,68.65
2022-09-21T22:27:53.594Z,68.58
2022-09-21T22:30:24.129Z,68.71
2022-09-21T22:32:54.792Z,68.88
2022-09-21T22:35:25.304Z,68.78
2022-09-21T22:37:56.521Z,68.68
2022-09-21T22:40:28.891Z,68.62
2022-09-21T22:42:59.422Z,68.60
2022-09-21T22:45:29.793Z,68.71
2022-09-21T22:48:00.134Z,68.71
2022-09-21T22:50:30.569Z,68.67
2022-09-21T22:53:00.656Z,68.43
2022-09-21T22:55:33.994Z,68.39
2022-09-21T22:58:04.299Z,68.69
2022-09-21T23:00:34.449Z,68.53
2022-09-21T23:03:04.751Z,68.42
2022-09-21T23:05:35.278Z,68.52
2022-09-21T23:08:06.501Z,68.46
2022-09-21T23:10:36.813Z,68.37
2022-09-21T23:13:09.429Z,68.53
2022-09-21T23:15:39.591Z,68.59
2022-09-21T23:18:10.042Z,68.73
2022-09-21T23:20:40.271Z,68.69
2022-09-21T23:23:10.639Z,68.61
2022-09-21T23:25:41.037Z,68.76
2022-09-21T23:28:11.242Z,68.70
2022-09-21T23:30:41.312Z,68.62
2022-09-21T23:33:11.776Z,68.59
2022-09-21T23:35:43.688Z,68.62
2022-09-21T23:38:14.032Z,68.61
2022-09-21T23:40:44.428Z,68.48
2022-09-21T23:43:14.717Z,68.34
2022-09-21T23:45:45.151Z,68.25
2022-09-21T23:48:15.481Z,68.40
2022-09-21T23:50:45.968Z,68.39
2022-09-21T23:57:44.741Z,68.34
